Herzlich willkommen!

Am freundlichen Bodensee-Flugplatz zwischen Schwarzwald, Rhein und Alpen.

Aktuelles

Es liegen keine aktuellen Meldungen vor. Wir freuen uns auf Ihren Besuch!

Live am Platz

Die Bilder unserer Webcams werden alle 5 Minuten aktualisiert.

Sonnenaufgang:

03:37 UTC / 05:37 Lokal

Sonnenuntergang:

19:02 UTC / 21:02 Lokal

METAR (19.05.2019 21:50 UTC):

EDNY 192150Z AUTO 17004KT 9999 // SCT008/// BKN080/// OVC100/// 12/12 Q1004
VFR

TAF (19.05.2019 17:00 UTC):

TAF EDNY 191700Z 1918/2018 24005KT 9999 BKN030 TEMPO 1918/1922 TSRA BKN020CB BECMG 1921/1924 BKN012 TEMPO 2000/2018 4000 RA BKN006 BECMG 2008/2010 25010KT

Alle Angaben unverbindlich und ohne Gewähr. Zeiten genähert.

Für den Verkehrslandeplatz Konstanz werden keine offiziellen Wetterinformationen ausgegeben. Daher werden zur Orientierung Daten des nahegelegenen Flughafens Friedrichshafen dargestellt.

Flugwetterdaten zur Verfügung gestellt von wippich.aero.